sensor_id;sensor_type;location;lat;lon;timestamp;P1;durP1;ratioP1;P2;durP2;ratioP2
13611;SDS011;6877;51.436;6.774;2023-12-20T00:00:48;26.30;;;12.40;;
13611;SDS011;6877;51.436;6.774;2023-12-20T00:03:14;30.67;;;12.30;;
13611;SDS011;6877;51.436;6.774;2023-12-20T00:05:47;25.40;;;11.13;;
13611;SDS011;6877;51.436;6.774;2023-12-20T00:08:19;36.38;;;12.50;;
13611;SDS011;6877;51.436;6.774;2023-12-20T00:10:50;31.88;;;12.50;;
13611;SDS011;6877;51.436;6.774;2023-12-20T00:13:16;36.75;;;12.40;;
13611;SDS011;6877;51.436;6.774;2023-12-20T00:15:48;25.75;;;11.98;;
13611;SDS011;6877;51.436;6.774;2023-12-20T00:18:19;29.15;;;11.75;;
13611;SDS011;6877;51.436;6.774;2023-12-20T00:20:45;24.90;;;10.35;;
13611;SDS011;6877;51.436;6.774;2023-12-20T00:23:17;35.60;;;11.82;;
13611;SDS011;6877;51.436;6.774;2023-12-20T00:25:43;23.50;;;9.82;;
13611;SDS011;6877;51.436;6.774;2023-12-20T00:28:15;26.38;;;10.40;;
13611;SDS011;6877;51.436;6.774;2023-12-20T00:30:41;26.42;;;9.77;;
13611;SDS011;6877;51.436;6.774;2023-12-20T00:33:07;24.70;;;9.50;;
13611;SDS011;6877;51.436;6.774;2023-12-20T00:35:34;27.38;;;10.95;;
13611;SDS011;6877;51.436;6.774;2023-12-20T00:38:00;27.55;;;10.82;;
13611;SDS011;6877;51.436;6.774;2023-12-20T00:40:32;26.70;;;10.05;;
13611;SDS011;6877;51.436;6.774;2023-12-20T00:43:04;33.00;;;11.02;;
13611;SDS011;6877;51.436;6.774;2023-12-20T00:45:35;27.98;;;10.32;;
13611;SDS011;6877;51.436;6.774;2023-12-20T00:48:07;27.17;;;9.27;;
13611;SDS011;6877;51.436;6.774;2023-12-20T00:50:33;20.45;;;9.57;;
13611;SDS011;6877;51.436;6.774;2023-12-20T00:53:05;23.42;;;8.57;;
13611;SDS011;6877;51.436;6.774;2023-12-20T00:55:31;30.40;;;9.95;;
13611;SDS011;6877;51.436;6.774;2023-12-20T00:58:03;22.38;;;8.73;;
13611;SDS011;6877;51.436;6.774;2023-12-20T01:00:30;25.45;;;10.38;;
13611;SDS011;6877;51.436;6.774;2023-12-20T01:03:01;22.40;;;10.38;;
13611;SDS011;6877;51.436;6.774;2023-12-20T01:05:32;24.48;;;9.70;;
13611;SDS011;6877;51.436;6.774;2023-12-20T01:08:04;24.55;;;10.68;;
13611;SDS011;6877;51.436;6.774;2023-12-20T01:10:31;21.23;;;9.35;;
13611;SDS011;6877;51.436;6.774;2023-12-20T01:13:03;32.50;;;11.63;;
13611;SDS011;6877;51.436;6.774;2023-12-20T01:15:34;20.52;;;9.32;;
13611;SDS011;6877;51.436;6.774;2023-12-20T01:18:01;25.85;;;10.82;;
13611;SDS011;6877;51.436;6.774;2023-12-20T01:20:32;23.90;;;9.98;;
13611;SDS011;6877;51.436;6.774;2023-12-20T01:23:04;27.65;;;10.30;;
13611;SDS011;6877;51.436;6.774;2023-12-20T01:25:30;30.67;;;12.07;;
13611;SDS011;6877;51.436;6.774;2023-12-20T01:27:56;30.50;;;13.10;;
13611;SDS011;6877;51.436;6.774;2023-12-20T01:30:28;30.92;;;11.30;;
13611;SDS011;6877;51.436;6.774;2023-12-20T01:33:00;21.92;;;10.52;;
13611;SDS011;6877;51.436;6.774;2023-12-20T01:35:27;23.20;;;10.45;;
13611;SDS011;6877;51.436;6.774;2023-12-20T01:37:58;24.30;;;9.82;;
13611;SDS011;6877;51.436;6.774;2023-12-20T01:40:30;21.60;;;9.50;;
13611;SDS011;6877;51.436;6.774;2023-12-20T01:43:00;23.25;;;9.90;;
13611;SDS011;6877;51.436;6.774;2023-12-20T01:45:27;22.95;;;10.20;;
13611;SDS011;6877;51.436;6.774;2023-12-20T01:47:54;28.80;;;10.38;;
13611;SDS011;6877;51.436;6.774;2023-12-20T01:50:27;21.35;;;8.77;;
13611;SDS011;6877;51.436;6.774;2023-12-20T01:52:55;23.02;;;10.18;;
13611;SDS011;6877;51.436;6.774;2023-12-20T01:55:24;21.35;;;9.10;;
13611;SDS011;6877;51.436;6.774;2023-12-20T01:57:51;25.85;;;10.35;;
13611;SDS011;6877;51.436;6.774;2023-12-20T02:00:18;27.88;;;9.55;;
13611;SDS011;6877;51.436;6.774;2023-12-20T02:02:54;17.20;;;8.63;;
13611;SDS011;6877;51.436;6.774;2023-12-20T02:05:23;27.90;;;10.32;;
13611;SDS011;6877;51.436;6.774;2023-12-20T02:07:56;24.98;;;8.50;;
13611;SDS011;6877;51.436;6.774;2023-12-20T02:10:28;25.92;;;11.25;;
13611;SDS011;6877;51.436;6.774;2023-12-20T02:13:00;17.98;;;8.30;;
13611;SDS011;6877;51.436;6.774;2023-12-20T02:15:31;26.80;;;9.90;;
13611;SDS011;6877;51.436;6.774;2023-12-20T02:18:03;30.27;;;9.20;;
13611;SDS011;6877;51.436;6.774;2023-12-20T02:20:35;20.98;;;9.75;;
13611;SDS011;6877;51.436;6.774;2023-12-20T02:23:01;22.45;;;10.95;;
13611;SDS011;6877;51.436;6.774;2023-12-20T02:25:33;33.92;;;9.55;;
13611;SDS011;6877;51.436;6.774;2023-12-20T02:27:59;24.70;;;9.07;;
13611;SDS011;6877;51.436;6.774;2023-12-20T02:30:31;34.67;;;10.07;;
13611;SDS011;6877;51.436;6.774;2023-12-20T02:32:57;26.35;;;8.85;;
13611;SDS011;6877;51.436;6.774;2023-12-20T02:35:26;19.08;;;8.70;;
13611;SDS011;6877;51.436;6.774;2023-12-20T02:37:57;23.63;;;8.80;;
13611;SDS011;6877;51.436;6.774;2023-12-20T02:40:24;20.20;;;8.20;;
13611;SDS011;6877;51.436;6.774;2023-12-20T02:42:55;23.48;;;8.73;;
13611;SDS011;6877;51.436;6.774;2023-12-20T02:45:21;27.23;;;8.52;;
13611;SDS011;6877;51.436;6.774;2023-12-20T02:47:53;23.63;;;8.23;;
13611;SDS011;6877;51.436;6.774;2023-12-20T02:50:20;24.23;;;8.73;;
13611;SDS011;6877;51.436;6.774;2023-12-20T02:52:46;23.10;;;7.13;;
13611;SDS011;6877;51.436;6.774;2023-12-20T02:55:13;23.48;;;8.77;;
13611;SDS011;6877;51.436;6.774;2023-12-20T02:57:39;21.38;;;7.05;;
13611;SDS011;6877;51.436;6.774;2023-12-20T03:00:12;24.58;;;6.43;;
13611;SDS011;6877;51.436;6.774;2023-12-20T03:02:39;20.40;;;6.88;;
13611;SDS011;6877;51.436;6.774;2023-12-20T03:05:06;13.05;;;6.28;;
13611;SDS011;6877;51.436;6.774;2023-12-20T03:07:33;22.92;;;7.00;;
13611;SDS011;6877;51.436;6.774;2023-12-20T03:09:59;12.32;;;6.53;;
13611;SDS011;6877;51.436;6.774;2023-12-20T03:12:25;23.08;;;6.65;;
13611;SDS011;6877;51.436;6.774;2023-12-20T03:14:57;12.05;;;5.05;;
13611;SDS011;6877;51.436;6.774;2023-12-20T03:17:28;14.18;;;5.60;;
13611;SDS011;6877;51.436;6.774;2023-12-20T03:20:00;13.60;;;5.28;;
13611;SDS011;6877;51.436;6.774;2023-12-20T03:22:26;17.33;;;4.82;;
13611;SDS011;6877;51.436;6.774;2023-12-20T03:24:53;9.85;;;5.25;;
13611;SDS011;6877;51.436;6.774;2023-12-20T03:27:24;14.25;;;4.47;;
13611;SDS011;6877;51.436;6.774;2023-12-20T03:29:56;14.13;;;4.25;;
13611;SDS011;6877;51.436;6.774;2023-12-20T03:32:27;10.82;;;5.10;;
13611;SDS011;6877;51.436;6.774;2023-12-20T03:34:58;13.55;;;4.45;;
13611;SDS011;6877;51.436;6.774;2023-12-20T03:37:25;13.18;;;4.32;;
13611;SDS011;6877;51.436;6.774;2023-12-20T03:39:51;10.70;;;4.57;;
13611;SDS011;6877;51.436;6.774;2023-12-20T03:42:18;14.18;;;4.15;;
13611;SDS011;6877;51.436;6.774;2023-12-20T03:44:44;10.95;;;4.38;;
13611;SDS011;6877;51.436;6.774;2023-12-20T03:47:15;12.13;;;4.57;;
13611;SDS011;6877;51.436;6.774;2023-12-20T03:49:42;11.52;;;4.57;;
13611;SDS011;6877;51.436;6.774;2023-12-20T03:52:08;14.73;;;3.83;;
13611;SDS011;6877;51.436;6.774;2023-12-20T03:54:40;11.35;;;4.03;;
13611;SDS011;6877;51.436;6.774;2023-12-20T03:57:13;21.35;;;4.60;;
13611;SDS011;6877;51.436;6.774;2023-12-20T03:59:40;12.30;;;4.90;;
13611;SDS011;6877;51.436;6.774;2023-12-20T04:02:11;15.88;;;4.65;;
13611;SDS011;6877;51.436;6.774;2023-12-20T04:04:38;8.48;;;3.95;;
13611;SDS011;6877;51.436;6.774;2023-12-20T04:07:04;15.43;;;5.88;;
13611;SDS011;6877;51.436;6.774;2023-12-20T04:09:36;13.15;;;3.72;;
13611;SDS011;6877;51.436;6.774;2023-12-20T04:12:02;16.83;;;3.70;;
13611;SDS011;6877;51.436;6.774;2023-12-20T04:14:29;16.20;;;4.13;;
13611;SDS011;6877;51.436;6.774;2023-12-20T04:16:55;13.52;;;4.50;;
13611;SDS011;6877;51.436;6.774;2023-12-20T04:19:22;16.35;;;4.07;;
13611;SDS011;6877;51.436;6.774;2023-12-20T04:21:53;14.63;;;4.20;;
13611;SDS011;6877;51.436;6.774;2023-12-20T04:24:25;13.60;;;3.53;;
13611;SDS011;6877;51.436;6.774;2023-12-20T04:26:56;8.23;;;3.70;;
13611;SDS011;6877;51.436;6.774;2023-12-20T04:29:23;11.30;;;4.13;;
13611;SDS011;6877;51.436;6.774;2023-12-20T04:31:49;13.95;;;5.90;;
13611;SDS011;6877;51.436;6.774;2023-12-20T04:34:17;13.30;;;4.32;;
13611;SDS011;6877;51.436;6.774;2023-12-20T04:36:49;9.73;;;4.25;;
13611;SDS011;6877;51.436;6.774;2023-12-20T04:39:15;15.90;;;4.35;;
13611;SDS011;6877;51.436;6.774;2023-12-20T04:41:47;15.05;;;6.07;;
13611;SDS011;6877;51.436;6.774;2023-12-20T04:44:16;11.90;;;5.25;;
13611;SDS011;6877;51.436;6.774;2023-12-20T04:46:47;19.98;;;5.10;;
13611;SDS011;6877;51.436;6.774;2023-12-20T04:49:14;26.73;;;5.90;;
13611;SDS011;6877;51.436;6.774;2023-12-20T04:51:40;17.35;;;5.97;;
13611;SDS011;6877;51.436;6.774;2023-12-20T04:54:12;15.32;;;5.00;;
13611;SDS011;6877;51.436;6.774;2023-12-20T04:56:39;15.82;;;5.30;;
13611;SDS011;6877;51.436;6.774;2023-12-20T04:59:11;32.97;;;6.97;;
13611;SDS011;6877;51.436;6.774;2023-12-20T05:01:37;19.10;;;6.70;;
13611;SDS011;6877;51.436;6.774;2023-12-20T05:04:04;18.40;;;7.50;;
13611;SDS011;6877;51.436;6.774;2023-12-20T05:06:35;13.90;;;5.78;;
13611;SDS011;6877;51.436;6.774;2023-12-20T05:09:02;13.98;;;5.85;;
13611;SDS011;6877;51.436;6.774;2023-12-20T05:11:33;11.25;;;5.68;;
13611;SDS011;6877;51.436;6.774;2023-12-20T05:13:59;12.90;;;6.55;;
13611;SDS011;6877;51.436;6.774;2023-12-20T05:16:31;13.45;;;5.95;;
13611;SDS011;6877;51.436;6.774;2023-12-20T05:18:57;24.42;;;7.18;;
13611;SDS011;6877;51.436;6.774;2023-12-20T05:21:26;18.52;;;5.90;;
13611;SDS011;6877;51.436;6.774;2023-12-20T05:23:53;18.20;;;7.00;;
13611;SDS011;6877;51.436;6.774;2023-12-20T05:26:19;26.45;;;7.78;;
13611;SDS011;6877;51.436;6.774;2023-12-20T05:28:51;21.10;;;8.00;;
13611;SDS011;6877;51.436;6.774;2023-12-20T05:31:17;25.73;;;7.18;;
13611;SDS011;6877;51.436;6.774;2023-12-20T05:33:48;19.08;;;6.68;;
13611;SDS011;6877;51.436;6.774;2023-12-20T05:36:20;29.88;;;7.78;;
13611;SDS011;6877;51.436;6.774;2023-12-20T05:38:47;16.83;;;7.00;;
13611;SDS011;6877;51.436;6.774;2023-12-20T05:41:13;10.60;;;5.90;;
13611;SDS011;6877;51.436;6.774;2023-12-20T05:43:40;18.10;;;6.60;;
13611;SDS011;6877;51.436;6.774;2023-12-20T05:46:06;22.35;;;6.07;;
13611;SDS011;6877;51.436;6.774;2023-12-20T05:48:33;16.38;;;6.47;;
13611;SDS011;6877;51.436;6.774;2023-12-20T05:50:59;15.52;;;6.03;;
13611;SDS011;6877;51.436;6.774;2023-12-20T05:53:26;14.02;;;6.57;;
13611;SDS011;6877;51.436;6.774;2023-12-20T05:55:57;23.15;;;6.70;;
13611;SDS011;6877;51.436;6.774;2023-12-20T05:58:28;23.00;;;6.35;;
13611;SDS011;6877;51.436;6.774;2023-12-20T06:01:00;26.15;;;7.22;;
13611;SDS011;6877;51.436;6.774;2023-12-20T06:03:27;19.95;;;7.45;;
13611;SDS011;6877;51.436;6.774;2023-12-20T06:05:58;27.50;;;7.15;;
13611;SDS011;6877;51.436;6.774;2023-12-20T06:08:31;19.92;;;7.45;;
13611;SDS011;6877;51.436;6.774;2023-12-20T06:11:03;15.85;;;6.93;;
13611;SDS011;6877;51.436;6.774;2023-12-20T06:13:34;19.80;;;6.88;;
13611;SDS011;6877;51.436;6.774;2023-12-20T06:16:01;15.23;;;6.70;;
13611;SDS011;6877;51.436;6.774;2023-12-20T06:18:28;19.70;;;7.90;;
13611;SDS011;6877;51.436;6.774;2023-12-20T06:20:54;21.70;;;6.78;;
13611;SDS011;6877;51.436;6.774;2023-12-20T06:23:26;17.48;;;6.75;;
13611;SDS011;6877;51.436;6.774;2023-12-20T06:25:53;16.63;;;6.78;;
13611;SDS011;6877;51.436;6.774;2023-12-20T06:28:20;25.08;;;7.85;;
13611;SDS011;6877;51.436;6.774;2023-12-20T06:30:51;15.15;;;6.05;;
13611;SDS011;6877;51.436;6.774;2023-12-20T06:33:20;17.05;;;6.40;;
13611;SDS011;6877;51.436;6.774;2023-12-20T06:35:48;21.60;;;7.05;;
13611;SDS011;6877;51.436;6.774;2023-12-20T06:38:15;18.27;;;7.38;;
13611;SDS011;6877;51.436;6.774;2023-12-20T06:40:49;21.98;;;6.50;;
13611;SDS011;6877;51.436;6.774;2023-12-20T06:43:15;15.73;;;6.63;;
13611;SDS011;6877;51.436;6.774;2023-12-20T06:45:42;16.23;;;6.07;;
13611;SDS011;6877;51.436;6.774;2023-12-20T06:48:13;12.20;;;5.90;;
13611;SDS011;6877;51.436;6.774;2023-12-20T06:50:40;24.08;;;6.78;;
13611;SDS011;6877;51.436;6.774;2023-12-20T06:53:06;20.35;;;6.13;;
13611;SDS011;6877;51.436;6.774;2023-12-20T06:55:36;24.45;;;7.22;;
13611;SDS011;6877;51.436;6.774;2023-12-20T06:58:09;17.33;;;6.57;;
13611;SDS011;6877;51.436;6.774;2023-12-20T07:00:40;22.08;;;6.68;;
13611;SDS011;6877;51.436;6.774;2023-12-20T07:03:11;26.48;;;7.55;;
13611;SDS011;6877;51.436;6.774;2023-12-20T07:05:43;13.43;;;5.85;;
13611;SDS011;6877;51.436;6.774;2023-12-20T07:08:10;17.70;;;6.07;;
13611;SDS011;6877;51.436;6.774;2023-12-20T07:10:37;20.10;;;6.38;;
13611;SDS011;6877;51.436;6.774;2023-12-20T07:13:03;18.30;;;6.93;;
13611;SDS011;6877;51.436;6.774;2023-12-20T07:15:30;24.13;;;9.35;;
13611;SDS011;6877;51.436;6.774;2023-12-20T07:18:01;17.67;;;6.65;;
13611;SDS011;6877;51.436;6.774;2023-12-20T07:20:32;19.77;;;7.38;;
13611;SDS011;6877;51.436;6.774;2023-12-20T07:22:59;23.90;;;6.28;;
13611;SDS011;6877;51.436;6.774;2023-12-20T07:25:30;27.98;;;7.53;;
13611;SDS011;6877;51.436;6.774;2023-12-20T07:27:58;28.20;;;7.72;;
13611;SDS011;6877;51.436;6.774;2023-12-20T07:30:24;20.45;;;6.75;;
13611;SDS011;6877;51.436;6.774;2023-12-20T07:32:56;23.90;;;8.45;;
13611;SDS011;6877;51.436;6.774;2023-12-20T07:35:25;18.88;;;6.50;;
13611;SDS011;6877;51.436;6.774;2023-12-20T07:37:56;12.38;;;6.47;;
13611;SDS011;6877;51.436;6.774;2023-12-20T07:40:23;28.63;;;6.90;;
13611;SDS011;6877;51.436;6.774;2023-12-20T07:42:50;19.15;;;6.75;;
13611;SDS011;6877;51.436;6.774;2023-12-20T07:45:21;26.33;;;7.45;;
13611;SDS011;6877;51.436;6.774;2023-12-20T07:47:48;19.67;;;5.85;;
13611;SDS011;6877;51.436;6.774;2023-12-20T07:50:15;18.27;;;6.68;;
13611;SDS011;6877;51.436;6.774;2023-12-20T07:52:47;20.20;;;6.47;;
13611;SDS011;6877;51.436;6.774;2023-12-20T07:55:13;14.48;;;6.82;;
13611;SDS011;6877;51.436;6.774;2023-12-20T07:57:44;18.13;;;6.60;;
13611;SDS011;6877;51.436;6.774;2023-12-20T08:00:16;11.30;;;5.72;;
13611;SDS011;6877;51.436;6.774;2023-12-20T08:02:48;18.98;;;7.00;;
13611;SDS011;6877;51.436;6.774;2023-12-20T08:05:14;21.08;;;7.55;;
13611;SDS011;6877;51.436;6.774;2023-12-20T08:07:46;17.17;;;7.00;;
13611;SDS011;6877;51.436;6.774;2023-12-20T08:10:12;23.15;;;8.63;;
13611;SDS011;6877;51.436;6.774;2023-12-20T08:12:39;21.45;;;7.93;;
13611;SDS011;6877;51.436;6.774;2023-12-20T08:15:06;20.73;;;8.02;;
13611;SDS011;6877;51.436;6.774;2023-12-20T08:17:32;17.45;;;7.60;;
13611;SDS011;6877;51.436;6.774;2023-12-20T08:19:59;24.23;;;7.55;;
13611;SDS011;6877;51.436;6.774;2023-12-20T08:22:26;21.60;;;9.18;;
13611;SDS011;6877;51.436;6.774;2023-12-20T08:24:57;22.33;;;7.65;;
13611;SDS011;6877;51.436;6.774;2023-12-20T08:27:24;19.25;;;7.20;;
13611;SDS011;6877;51.436;6.774;2023-12-20T08:29:51;31.63;;;8.63;;
13611;SDS011;6877;51.436;6.774;2023-12-20T08:32:26;20.35;;;7.05;;
13611;SDS011;6877;51.436;6.774;2023-12-20T08:34:57;22.30;;;7.55;;
13611;SDS011;6877;51.436;6.774;2023-12-20T08:37:24;19.23;;;6.72;;
13611;SDS011;6877;51.436;6.774;2023-12-20T08:39:56;23.80;;;6.43;;
13611;SDS011;6877;51.436;6.774;2023-12-20T08:42:27;20.23;;;6.57;;
13611;SDS011;6877;51.436;6.774;2023-12-20T08:44:57;17.00;;;6.15;;
13611;SDS011;6877;51.436;6.774;2023-12-20T08:47:27;22.60;;;5.57;;
13611;SDS011;6877;51.436;6.774;2023-12-20T08:49:58;14.15;;;5.65;;
13611;SDS011;6877;51.436;6.774;2023-12-20T08:52:26;12.85;;;5.00;;
13611;SDS011;6877;51.436;6.774;2023-12-20T08:54:55;15.38;;;6.22;;
13611;SDS011;6877;51.436;6.774;2023-12-20T08:57:27;17.98;;;5.78;;
13611;SDS011;6877;51.436;6.774;2023-12-20T08:59:54;11.57;;;5.07;;
13611;SDS011;6877;51.436;6.774;2023-12-20T09:02:25;10.18;;;4.38;;
13611;SDS011;6877;51.436;6.774;2023-12-20T09:04:56;17.13;;;4.65;;
13611;SDS011;6877;51.436;6.774;2023-12-20T09:07:28;17.65;;;5.22;;
13611;SDS011;6877;51.436;6.774;2023-12-20T09:10:01;15.38;;;5.78;;
13611;SDS011;6877;51.436;6.774;2023-12-20T09:12:29;13.70;;;5.13;;
13611;SDS011;6877;51.436;6.774;2023-12-20T09:15:00;19.20;;;5.03;;
13611;SDS011;6877;51.436;6.774;2023-12-20T09:17:29;21.23;;;6.25;;
13611;SDS011;6877;51.436;6.774;2023-12-20T09:19:55;16.35;;;7.65;;
13611;SDS011;6877;51.436;6.774;2023-12-20T09:22:27;19.17;;;4.90;;
13611;SDS011;6877;51.436;6.774;2023-12-20T09:24:53;15.27;;;4.90;;
13611;SDS011;6877;51.436;6.774;2023-12-20T09:27:20;12.98;;;5.00;;
13611;SDS011;6877;51.436;6.774;2023-12-20T09:29:51;10.10;;;4.53;;
13611;SDS011;6877;51.436;6.774;2023-12-20T09:32:19;17.58;;;6.35;;
13611;SDS011;6877;51.436;6.774;2023-12-20T09:34:48;14.00;;;5.45;;
13611;SDS011;6877;51.436;6.774;2023-12-20T09:37:20;23.48;;;5.28;;
13611;SDS011;6877;51.436;6.774;2023-12-20T09:39:51;14.63;;;4.55;;
13611;SDS011;6877;51.436;6.774;2023-12-20T09:42:47;21.17;;;5.00;;
13611;SDS011;6877;51.436;6.774;2023-12-20T09:45:09;7.15;;;4.55;;
13611;SDS011;6877;51.436;6.774;2023-12-20T09:47:43;13.25;;;4.72;;
13611;SDS011;6877;51.436;6.774;2023-12-20T09:50:11;23.52;;;5.50;;
13611;SDS011;6877;51.436;6.774;2023-12-20T09:52:39;21.00;;;4.93;;
13611;SDS011;6877;51.436;6.774;2023-12-20T09:55:11;21.85;;;5.57;;
13611;SDS011;6877;51.436;6.774;2023-12-20T09:57:43;18.85;;;5.60;;
13611;SDS011;6877;51.436;6.774;2023-12-20T10:00:15;29.15;;;5.32;;
13611;SDS011;6877;51.436;6.774;2023-12-20T10:02:58;13.63;;;5.15;;
13611;SDS011;6877;51.436;6.774;2023-12-20T10:05:31;10.60;;;4.63;;
13611;SDS011;6877;51.436;6.774;2023-12-20T10:08:03;20.88;;;5.55;;
13611;SDS011;6877;51.436;6.774;2023-12-20T10:10:35;15.43;;;4.72;;
13611;SDS011;6877;51.436;6.774;2023-12-20T10:15:37;17.25;;;5.78;;
13611;SDS011;6877;51.436;6.774;2023-12-20T10:18:09;15.27;;;5.25;;
13611;SDS011;6877;51.436;6.774;2023-12-20T10:20:36;15.25;;;6.18;;
13611;SDS011;6877;51.436;6.774;2023-12-20T10:23:08;15.63;;;4.97;;
13611;SDS011;6877;51.436;6.774;2023-12-20T10:25:40;13.07;;;4.78;;
13611;SDS011;6877;51.436;6.774;2023-12-20T10:28:15;11.27;;;4.93;;
13611;SDS011;6877;51.436;6.774;2023-12-20T10:30:54;20.60;;;4.45;;
13611;SDS011;6877;51.436;6.774;2023-12-20T10:33:24;19.73;;;6.30;;
13611;SDS011;6877;51.436;6.774;2023-12-20T10:35:57;16.35;;;5.47;;
13611;SDS011;6877;51.436;6.774;2023-12-20T10:38:23;9.88;;;5.15;;
13611;SDS011;6877;51.436;6.774;2023-12-20T10:40:52;12.85;;;5.28;;
13611;SDS011;6877;51.436;6.774;2023-12-20T10:43:28;18.70;;;5.38;;
13611;SDS011;6877;51.436;6.774;2023-12-20T10:45:56;8.93;;;4.95;;
13611;SDS011;6877;51.436;6.774;2023-12-20T10:48:28;12.65;;;4.75;;
13611;SDS011;6877;51.436;6.774;2023-12-20T10:50:57;8.18;;;4.50;;
13611;SDS011;6877;51.436;6.774;2023-12-20T10:53:24;14.43;;;5.82;;
13611;SDS011;6877;51.436;6.774;2023-12-20T10:55:52;17.42;;;4.68;;
13611;SDS011;6877;51.436;6.774;2023-12-20T10:58:28;10.43;;;4.65;;
13611;SDS011;6877;51.436;6.774;2023-12-20T11:00:59;15.15;;;6.38;;
13611;SDS011;6877;51.436;6.774;2023-12-20T11:03:28;26.23;;;6.00;;
13611;SDS011;6877;51.436;6.774;2023-12-20T11:06:04;10.57;;;5.47;;
13611;SDS011;6877;51.436;6.774;2023-12-20T11:08:43;10.98;;;5.60;;
13611;SDS011;6877;51.436;6.774;2023-12-20T11:11:33;15.05;;;5.57;;
13611;SDS011;6877;51.436;6.774;2023-12-20T11:14:06;11.60;;;4.57;;
13611;SDS011;6877;51.436;6.774;2023-12-20T11:16:37;19.08;;;5.40;;
13611;SDS011;6877;51.436;6.774;2023-12-20T11:19:09;12.88;;;6.50;;
13611;SDS011;6877;51.436;6.774;2023-12-20T11:21:45;12.85;;;5.88;;
13611;SDS011;6877;51.436;6.774;2023-12-20T11:24:12;22.05;;;6.00;;
13611;SDS011;6877;51.436;6.774;2023-12-20T11:26:47;14.05;;;5.43;;
13611;SDS011;6877;51.436;6.774;2023-12-20T11:29:36;15.13;;;5.22;;
13611;SDS011;6877;51.436;6.774;2023-12-20T11:32:03;24.77;;;6.07;;
13611;SDS011;6877;51.436;6.774;2023-12-20T11:37:25;15.20;;;5.38;;
13611;SDS011;6877;51.436;6.774;2023-12-20T11:39:56;21.33;;;5.93;;
13611;SDS011;6877;51.436;6.774;2023-12-20T11:42:26;17.50;;;5.38;;
13611;SDS011;6877;51.436;6.774;2023-12-20T11:44:53;16.00;;;7.03;;
13611;SDS011;6877;51.436;6.774;2023-12-20T11:47:24;13.25;;;6.90;;
13611;SDS011;6877;51.436;6.774;2023-12-20T11:49:56;19.27;;;5.63;;
13611;SDS011;6877;51.436;6.774;2023-12-20T11:52:23;16.92;;;6.05;;
13611;SDS011;6877;51.436;6.774;2023-12-20T11:54:49;25.13;;;7.93;;
13611;SDS011;6877;51.436;6.774;2023-12-20T11:57:18;17.02;;;6.63;;
13611;SDS011;6877;51.436;6.774;2023-12-20T11:59:50;24.05;;;5.55;;
13611;SDS011;6877;51.436;6.774;2023-12-20T12:02:16;21.05;;;5.95;;
13611;SDS011;6877;51.436;6.774;2023-12-20T12:04:48;20.73;;;6.60;;
13611;SDS011;6877;51.436;6.774;2023-12-20T12:07:15;17.38;;;5.53;;
13611;SDS011;6877;51.436;6.774;2023-12-20T12:09:41;19.38;;;7.32;;
13611;SDS011;6877;51.436;6.774;2023-12-20T12:12:08;21.92;;;6.43;;
13611;SDS011;6877;51.436;6.774;2023-12-20T12:14:40;13.65;;;5.55;;
13611;SDS011;6877;51.436;6.774;2023-12-20T12:17:10;13.95;;;6.53;;
13611;SDS011;6877;51.436;6.774;2023-12-20T12:19:43;10.98;;;5.95;;
13611;SDS011;6877;51.436;6.774;2023-12-20T12:22:10;20.60;;;7.03;;
13611;SDS011;6877;51.436;6.774;2023-12-20T12:24:47;14.35;;;6.07;;
13611;SDS011;6877;51.436;6.774;2023-12-20T12:27:14;17.08;;;5.13;;
13611;SDS011;6877;51.436;6.774;2023-12-20T12:30:01;14.57;;;5.60;;
13611;SDS011;6877;51.436;6.774;2023-12-20T12:32:30;18.48;;;5.70;;
13611;SDS011;6877;51.436;6.774;2023-12-20T12:34:56;18.85;;;6.07;;
13611;SDS011;6877;51.436;6.774;2023-12-20T12:37:23;17.52;;;6.60;;
13611;SDS011;6877;51.436;6.774;2023-12-20T12:39:55;11.55;;;5.70;;
13611;SDS011;6877;51.436;6.774;2023-12-20T12:42:27;17.70;;;5.43;;
13611;SDS011;6877;51.436;6.774;2023-12-20T12:45:00;18.13;;;6.25;;
13611;SDS011;6877;51.436;6.774;2023-12-20T12:47:31;12.63;;;5.68;;
13611;SDS011;6877;51.436;6.774;2023-12-20T12:49:58;13.23;;;5.10;;
13611;SDS011;6877;51.436;6.774;2023-12-20T12:52:30;16.45;;;6.18;;
13611;SDS011;6877;51.436;6.774;2023-12-20T12:55:01;15.63;;;6.38;;
13611;SDS011;6877;51.436;6.774;2023-12-20T12:57:35;17.40;;;5.68;;
13611;SDS011;6877;51.436;6.774;2023-12-20T13:00:01;13.15;;;7.43;;
13611;SDS011;6877;51.436;6.774;2023-12-20T13:02:30;18.73;;;6.20;;
13611;SDS011;6877;51.436;6.774;2023-12-20T13:04:56;18.42;;;6.32;;
13611;SDS011;6877;51.436;6.774;2023-12-20T13:07:28;15.02;;;5.97;;
13611;SDS011;6877;51.436;6.774;2023-12-20T13:09:54;23.45;;;6.90;;
13611;SDS011;6877;51.436;6.774;2023-12-20T13:12:26;16.13;;;5.78;;
13611;SDS011;6877;51.436;6.774;2023-12-20T13:14:57;21.63;;;7.07;;
13611;SDS011;6877;51.436;6.774;2023-12-20T13:17:29;19.98;;;6.88;;
13611;SDS011;6877;51.436;6.774;2023-12-20T13:20:00;20.58;;;10.15;;
13611;SDS011;6877;51.436;6.774;2023-12-20T13:22:27;18.10;;;7.82;;
13611;SDS011;6877;51.436;6.774;2023-12-20T13:24:54;23.70;;;7.65;;
13611;SDS011;6877;51.436;6.774;2023-12-20T13:27:20;15.23;;;6.72;;
13611;SDS011;6877;51.436;6.774;2023-12-20T13:29:52;18.48;;;7.47;;
13611;SDS011;6877;51.436;6.774;2023-12-20T13:32:18;19.05;;;6.80;;
13611;SDS011;6877;51.436;6.774;2023-12-20T13:34:46;19.63;;;7.75;;
13611;SDS011;6877;51.436;6.774;2023-12-20T13:37:13;20.48;;;8.65;;
13611;SDS011;6877;51.436;6.774;2023-12-20T13:39:44;14.57;;;6.25;;
13611;SDS011;6877;51.436;6.774;2023-12-20T13:42:15;17.85;;;7.30;;
13611;SDS011;6877;51.436;6.774;2023-12-20T13:44:42;22.13;;;7.38;;
13611;SDS011;6877;51.436;6.774;2023-12-20T13:47:08;14.60;;;7.15;;
13611;SDS011;6877;51.436;6.774;2023-12-20T13:49:40;15.13;;;6.72;;
13611;SDS011;6877;51.436;6.774;2023-12-20T13:52:06;16.88;;;7.10;;
13611;SDS011;6877;51.436;6.774;2023-12-20T13:54:38;15.13;;;6.50;;
13611;SDS011;6877;51.436;6.774;2023-12-20T13:57:05;25.75;;;8.40;;
13611;SDS011;6877;51.436;6.774;2023-12-20T13:59:31;19.00;;;8.02;;
13611;SDS011;6877;51.436;6.774;2023-12-20T14:01:57;22.15;;;7.50;;
13611;SDS011;6877;51.436;6.774;2023-12-20T14:04:29;28.08;;;6.95;;
13611;SDS011;6877;51.436;6.774;2023-12-20T14:06:55;18.77;;;7.68;;
13611;SDS011;6877;51.436;6.774;2023-12-20T14:09:22;23.70;;;8.57;;
13611;SDS011;6877;51.436;6.774;2023-12-20T14:11:53;19.55;;;7.93;;
13611;SDS011;6877;51.436;6.774;2023-12-20T14:14:25;21.17;;;8.27;;
13611;SDS011;6877;51.436;6.774;2023-12-20T14:16:52;32.42;;;9.43;;
13611;SDS011;6877;51.436;6.774;2023-12-20T14:19:23;24.52;;;8.88;;
13611;SDS011;6877;51.436;6.774;2023-12-20T14:21:50;19.45;;;8.70;;
13611;SDS011;6877;51.436;6.774;2023-12-20T14:24:16;21.33;;;7.95;;
13611;SDS011;6877;51.436;6.774;2023-12-20T14:26:42;27.67;;;9.82;;
13611;SDS011;6877;51.436;6.774;2023-12-20T14:29:09;20.55;;;8.52;;
13611;SDS011;6877;51.436;6.774;2023-12-20T14:31:35;31.98;;;9.20;;
13611;SDS011;6877;51.436;6.774;2023-12-20T14:34:09;22.58;;;8.77;;
13611;SDS011;6877;51.436;6.774;2023-12-20T14:36:36;26.42;;;7.75;;
13611;SDS011;6877;51.436;6.774;2023-12-20T14:39:08;19.92;;;7.57;;
13611;SDS011;6877;51.436;6.774;2023-12-20T14:41:34;30.45;;;8.90;;
13611;SDS011;6877;51.436;6.774;2023-12-20T14:44:06;22.33;;;8.73;;
13611;SDS011;6877;51.436;6.774;2023-12-20T14:46:32;19.20;;;8.43;;
13611;SDS011;6877;51.436;6.774;2023-12-20T14:48:59;16.65;;;8.00;;
13611;SDS011;6877;51.436;6.774;2023-12-20T14:51:33;20.38;;;8.25;;
13611;SDS011;6877;51.436;6.774;2023-12-20T14:54:04;30.95;;;9.13;;
13611;SDS011;6877;51.436;6.774;2023-12-20T14:56:36;27.35;;;9.07;;
13611;SDS011;6877;51.436;6.774;2023-12-20T14:59:02;27.27;;;9.02;;
13611;SDS011;6877;51.436;6.774;2023-12-20T15:01:29;22.27;;;9.63;;
13611;SDS011;6877;51.436;6.774;2023-12-20T15:03:57;28.25;;;9.45;;